sensor_id;sensor_type;location;lat;lon;timestamp;temperature;humidity
16867;DHT22;8550;52.596;13.320;2024-03-23T00:56:52;8.50;99.90
16867;DHT22;8550;52.596;13.320;2024-03-23T01:01:53;8.40;99.90
16867;DHT22;8550;52.596;13.320;2024-03-23T01:06:54;8.40;99.90
16867;DHT22;8550;52.596;13.320;2024-03-23T01:11:55;8.50;99.90
16867;DHT22;8550;52.596;13.320;2024-03-23T01:16:55;8.40;99.90
16867;DHT22;8550;52.596;13.320;2024-03-23T01:21:56;8.30;99.90
16867;DHT22;8550;52.596;13.320;2024-03-23T01:26:56;8.30;99.90
16867;DHT22;8550;52.596;13.320;2024-03-23T01:31:57;8.20;99.90
16867;DHT22;8550;52.596;13.320;2024-03-23T01:36:57;8.20;99.90
16867;DHT22;8550;52.596;13.320;2024-03-23T01:41:59;8.20;99.90
16867;DHT22;8550;52.596;13.320;2024-03-23T01:46:59;8.30;99.90
16867;DHT22;8550;52.596;13.320;2024-03-23T01:52:00;8.20;99.90
16867;DHT22;8550;52.596;13.320;2024-03-23T01:57:01;8.20;99.90
16867;DHT22;8550;52.596;13.320;2024-03-23T02:02:01;8.20;99.90
16867;DHT22;8550;52.596;13.320;2024-03-23T02:07:02;8.20;99.90
16867;DHT22;8550;52.596;13.320;2024-03-23T02:12:05;8.20;99.90
16867;DHT22;8550;52.596;13.320;2024-03-23T02:17:06;8.20;99.90
16867;DHT22;8550;52.596;13.320;2024-03-23T02:22:07;8.10;99.90
16867;DHT22;8550;52.596;13.320;2024-03-23T02:27:07;8.10;99.90
16867;DHT22;8550;52.596;13.320;2024-03-23T02:32:08;8.10;99.90
16867;DHT22;8550;52.596;13.320;2024-03-23T02:37:12;8.20;99.90
16867;DHT22;8550;52.596;13.320;2024-03-23T02:42:12;8.10;99.90
16867;DHT22;8550;52.596;13.320;2024-03-23T02:47:13;8.20;99.90
16867;DHT22;8550;52.596;13.320;2024-03-23T02:52:13;8.20;99.90
16867;DHT22;8550;52.596;13.320;2024-03-23T02:57:14;8.10;99.90
16867;DHT22;8550;52.596;13.320;2024-03-23T03:02:15;8.00;99.90
16867;DHT22;8550;52.596;13.320;2024-03-23T03:07:16;8.00;99.90
16867;DHT22;8550;52.596;13.320;2024-03-23T03:12:17;8.10;99.90
16867;DHT22;8550;52.596;13.320;2024-03-23T03:17:18;8.00;99.90
16867;DHT22;8550;52.596;13.320;2024-03-23T03:22:19;7.90;99.90
16867;DHT22;8550;52.596;13.320;2024-03-23T03:27:20;7.90;99.90
16867;DHT22;8550;52.596;13.320;2024-03-23T03:32:21;7.90;99.90
16867;DHT22;8550;52.596;13.320;2024-03-23T03:37:22;7.90;99.90
16867;DHT22;8550;52.596;13.320;2024-03-23T03:42:22;7.90;99.90
16867;DHT22;8550;52.596;13.320;2024-03-23T03:47:23;7.70;99.90
16867;DHT22;8550;52.596;13.320;2024-03-23T03:52:24;7.60;99.90
16867;DHT22;8550;52.596;13.320;2024-03-23T03:57:24;7.50;99.90
16867;DHT22;8550;52.596;13.320;2024-03-23T04:02:25;7.60;99.90
16867;DHT22;8550;52.596;13.320;2024-03-23T04:07:25;7.60;99.90
16867;DHT22;8550;52.596;13.320;2024-03-23T04:12:26;7.60;99.90
16867;DHT22;8550;52.596;13.320;2024-03-23T04:17:27;7.50;99.90
16867;DHT22;8550;52.596;13.320;2024-03-23T04:22:32;7.50;99.90
16867;DHT22;8550;52.596;13.320;2024-03-23T04:27:33;7.50;99.90
16867;DHT22;8550;52.596;13.320;2024-03-23T04:32:34;7.50;99.90
16867;DHT22;8550;52.596;13.320;2024-03-23T04:37:35;7.50;99.90
16867;DHT22;8550;52.596;13.320;2024-03-23T04:42:35;7.40;99.90
16867;DHT22;8550;52.596;13.320;2024-03-23T04:47:37;7.40;99.90
16867;DHT22;8550;52.596;13.320;2024-03-23T04:52:38;7.30;99.90
16867;DHT22;8550;52.596;13.320;2024-03-23T04:57:38;7.30;99.90
16867;DHT22;8550;52.596;13.320;2024-03-23T05:02:39;7.30;99.90
16867;DHT22;8550;52.596;13.320;2024-03-23T05:07:40;7.30;99.90
16867;DHT22;8550;52.596;13.320;2024-03-23T05:12:42;7.30;99.90
16867;DHT22;8550;52.596;13.320;2024-03-23T05:17:42;7.30;99.90
16867;DHT22;8550;52.596;13.320;2024-03-23T05:22:44;7.40;99.90
16867;DHT22;8550;52.596;13.320;2024-03-23T05:27:44;7.30;99.90
16867;DHT22;8550;52.596;13.320;2024-03-23T05:32:45;7.40;99.90
16867;DHT22;8550;52.596;13.320;2024-03-23T05:37:46;7.40;99.90
16867;DHT22;8550;52.596;13.320;2024-03-23T05:42:46;7.40;99.90
16867;DHT22;8550;52.596;13.320;2024-03-23T05:47:47;7.40;99.90
16867;DHT22;8550;52.596;13.320;2024-03-23T05:52:48;7.40;99.90
16867;DHT22;8550;52.596;13.320;2024-03-23T05:57:49;7.30;99.90
16867;DHT22;8550;52.596;13.320;2024-03-23T06:02:49;7.30;99.90
16867;DHT22;8550;52.596;13.320;2024-03-23T06:07:50;7.20;99.90
16867;DHT22;8550;52.596;13.320;2024-03-23T06:12:51;7.30;99.90
16867;DHT22;8550;52.596;13.320;2024-03-23T06:17:52;7.30;99.90
16867;DHT22;8550;52.596;13.320;2024-03-23T06:22:53;7.30;99.90
16867;DHT22;8550;52.596;13.320;2024-03-23T06:27:53;7.50;99.90
16867;DHT22;8550;52.596;13.320;2024-03-23T06:32:54;7.40;99.90
16867;DHT22;8550;52.596;13.320;2024-03-23T06:37:55;7.30;99.90
16867;DHT22;8550;52.596;13.320;2024-03-23T06:42:55;7.50;99.90
16867;DHT22;8550;52.596;13.320;2024-03-23T06:47:57;7.50;99.90
16867;DHT22;8550;52.596;13.320;2024-03-23T06:52:58;7.70;99.90
16867;DHT22;8550;52.596;13.320;2024-03-23T06:57:59;7.70;99.90
16867;DHT22;8550;52.596;13.320;2024-03-23T07:03:00;7.60;99.90
16867;DHT22;8550;52.596;13.320;2024-03-23T07:08:00;7.60;99.90
16867;DHT22;8550;52.596;13.320;2024-03-23T07:13:01;7.70;99.90
16867;DHT22;8550;52.596;13.320;2024-03-23T07:18:02;7.90;99.90
16867;DHT22;8550;52.596;13.320;2024-03-23T07:23:03;7.80;99.90
16867;DHT22;8550;52.596;13.320;2024-03-23T07:28:04;7.90;99.90
16867;DHT22;8550;52.596;13.320;2024-03-23T07:33:05;7.90;99.90
16867;DHT22;8550;52.596;13.320;2024-03-23T07:38:06;8.00;99.90
16867;DHT22;8550;52.596;13.320;2024-03-23T07:43:07;8.00;99.90
16867;DHT22;8550;52.596;13.320;2024-03-23T07:48:07;7.90;99.90
16867;DHT22;8550;52.596;13.320;2024-03-23T07:53:08;7.60;99.90
16867;DHT22;8550;52.596;13.320;2024-03-23T07:58:09;7.40;99.90
16867;DHT22;8550;52.596;13.320;2024-03-23T08:03:10;7.20;99.90
16867;DHT22;8550;52.596;13.320;2024-03-23T08:08:10;7.20;99.90
16867;DHT22;8550;52.596;13.320;2024-03-23T08:13:11;7.20;99.90
16867;DHT22;8550;52.596;13.320;2024-03-23T08:18:12;6.90;99.90
16867;DHT22;8550;52.596;13.320;2024-03-23T08:23:13;7.00;99.90
16867;DHT22;8550;52.596;13.320;2024-03-23T08:28:13;7.00;99.90
16867;DHT22;8550;52.596;13.320;2024-03-23T08:33:14;6.90;99.90
16867;DHT22;8550;52.596;13.320;2024-03-23T08:38:14;6.70;99.90
16867;DHT22;8550;52.596;13.320;2024-03-23T08:43:16;6.60;99.90
16867;DHT22;8550;52.596;13.320;2024-03-23T08:48:17;6.60;99.90
16867;DHT22;8550;52.596;13.320;2024-03-23T08:53:18;6.60;99.90
16867;DHT22;8550;52.596;13.320;2024-03-23T08:58:18;6.40;99.90
16867;DHT22;8550;52.596;13.320;2024-03-23T09:03:20;6.10;99.90
16867;DHT22;8550;52.596;13.320;2024-03-23T09:08:21;6.10;99.90
16867;DHT22;8550;52.596;13.320;2024-03-23T09:13:22;6.00;99.90
16867;DHT22;8550;52.596;13.320;2024-03-23T09:18:23;6.00;99.90
16867;DHT22;8550;52.596;13.320;2024-03-23T09:23:24;5.90;99.90
16867;DHT22;8550;52.596;13.320;2024-03-23T09:28:25;6.00;99.90
16867;DHT22;8550;52.596;13.320;2024-03-23T09:33:25;5.90;99.90
16867;DHT22;8550;52.596;13.320;2024-03-23T09:38:26;5.90;99.90
16867;DHT22;8550;52.596;13.320;2024-03-23T09:43:27;5.90;99.90
16867;DHT22;8550;52.596;13.320;2024-03-23T09:48:28;5.90;99.90
16867;DHT22;8550;52.596;13.320;2024-03-23T09:53:29;6.00;99.90
16867;DHT22;8550;52.596;13.320;2024-03-23T09:58:30;6.00;99.90
16867;DHT22;8550;52.596;13.320;2024-03-23T10:03:33;5.90;99.90
16867;DHT22;8550;52.596;13.320;2024-03-23T10:08:42;5.80;99.90
16867;DHT22;8550;52.596;13.320;2024-03-23T10:13:43;6.00;99.90
16867;DHT22;8550;52.596;13.320;2024-03-23T10:18:44;6.10;99.90
16867;DHT22;8550;52.596;13.320;2024-03-23T10:23:44;6.00;99.90
16867;DHT22;8550;52.596;13.320;2024-03-23T10:29:00;6.00;99.90
16867;DHT22;8550;52.596;13.320;2024-03-23T10:34:03;6.10;99.90
16867;DHT22;8550;52.596;13.320;2024-03-23T10:39:05;6.20;99.90
16867;DHT22;8550;52.596;13.320;2024-03-23T10:44:08;6.30;99.90
16867;DHT22;8550;52.596;13.320;2024-03-23T10:49:08;6.30;99.90
16867;DHT22;8550;52.596;13.320;2024-03-23T10:54:10;6.40;99.90
16867;DHT22;8550;52.596;13.320;2024-03-23T10:59:14;6.40;99.90
16867;DHT22;8550;52.596;13.320;2024-03-23T11:04:38;6.50;99.90
16867;DHT22;8550;52.596;13.320;2024-03-23T11:09:40;6.60;99.90
16867;DHT22;8550;52.596;13.320;2024-03-23T11:14:41;6.70;99.90
16867;DHT22;8550;52.596;13.320;2024-03-23T11:19:42;6.80;99.90
16867;DHT22;8550;52.596;13.320;2024-03-23T11:24:50;7.00;99.90
16867;DHT22;8550;52.596;13.320;2024-03-23T11:29:50;6.90;99.90
16867;DHT22;8550;52.596;13.320;2024-03-23T11:34:51;7.00;99.90
16867;DHT22;8550;52.596;13.320;2024-03-23T11:39:51;7.20;99.90
16867;DHT22;8550;52.596;13.320;2024-03-23T11:44:52;7.40;99.90
16867;DHT22;8550;52.596;13.320;2024-03-23T11:49:53;7.80;99.90
16867;DHT22;8550;52.596;13.320;2024-03-23T11:55:03;7.90;99.90
16867;DHT22;8550;52.596;13.320;2024-03-23T12:00:21;8.20;99.90
16867;DHT22;8550;52.596;13.320;2024-03-23T12:05:22;8.30;99.90
16867;DHT22;8550;52.596;13.320;2024-03-23T12:10:23;8.20;99.90
16867;DHT22;8550;52.596;13.320;2024-03-23T12:15:24;7.90;99.90
16867;DHT22;8550;52.596;13.320;2024-03-23T12:20:24;7.90;99.90
16867;DHT22;8550;52.596;13.320;2024-03-23T12:25:25;8.10;99.90
16867;DHT22;8550;52.596;13.320;2024-03-23T12:30:26;8.10;99.90
16867;DHT22;8550;52.596;13.320;2024-03-23T12:35:26;8.40;99.90
16867;DHT22;8550;52.596;13.320;2024-03-23T12:40:27;8.40;99.90
16867;DHT22;8550;52.596;13.320;2024-03-23T12:45:28;8.70;99.90
16867;DHT22;8550;52.596;13.320;2024-03-23T12:50:29;8.80;99.90
16867;DHT22;8550;52.596;13.320;2024-03-23T12:55:29;9.10;99.90
16867;DHT22;8550;52.596;13.320;2024-03-23T13:00:30;9.50;99.90
16867;DHT22;8550;52.596;13.320;2024-03-23T13:05:31;9.70;99.90
16867;DHT22;8550;52.596;13.320;2024-03-23T13:10:31;10.00;99.90
16867;DHT22;8550;52.596;13.320;2024-03-23T13:15:32;10.10;99.90
16867;DHT22;8550;52.596;13.320;2024-03-23T13:20:35;9.80;99.90
16867;DHT22;8550;52.596;13.320;2024-03-23T13:25:36;10.00;99.90
16867;DHT22;8550;52.596;13.320;2024-03-23T13:30:37;10.60;99.90
16867;DHT22;8550;52.596;13.320;2024-03-23T13:35:39;13.20;99.90
16867;DHT22;8550;52.596;13.320;2024-03-23T13:45:57;13.80;99.90
16867;DHT22;8550;52.596;13.320;2024-03-23T13:50:58;11.60;99.90
16867;DHT22;8550;52.596;13.320;2024-03-23T13:56:00;10.70;99.90
16867;DHT22;8550;52.596;13.320;2024-03-23T14:01:01;11.10;99.90
16867;DHT22;8550;52.596;13.320;2024-03-23T14:06:04;12.70;99.90
16867;DHT22;8550;52.596;13.320;2024-03-23T14:11:06;11.90;99.90
16867;DHT22;8550;52.596;13.320;2024-03-23T14:16:10;10.90;99.90
16867;DHT22;8550;52.596;13.320;2024-03-23T14:21:17;9.90;99.90
16867;DHT22;8550;52.596;13.320;2024-03-23T14:26:18;9.30;99.90
16867;DHT22;8550;52.596;13.320;2024-03-23T14:31:19;8.50;99.90
16867;DHT22;8550;52.596;13.320;2024-03-23T14:36:27;7.50;99.90
16867;DHT22;8550;52.596;13.320;2024-03-23T14:41:28;6.80;99.90
16867;DHT22;8550;52.596;13.320;2024-03-23T14:46:29;6.50;99.90
16867;DHT22;8550;52.596;13.320;2024-03-23T14:51:30;6.50;99.90
16867;DHT22;8550;52.596;13.320;2024-03-23T14:56:33;6.40;99.90
16867;DHT22;8550;52.596;13.320;2024-03-23T15:01:36;6.50;99.90
16867;DHT22;8550;52.596;13.320;2024-03-23T15:06:36;8.20;99.90
16867;DHT22;8550;52.596;13.320;2024-03-23T15:11:37;11.90;99.90
16867;DHT22;8550;52.596;13.320;2024-03-23T15:16:38;14.20;99.90
16867;DHT22;8550;52.596;13.320;2024-03-23T15:21:40;15.00;99.90
16867;DHT22;8550;52.596;13.320;2024-03-23T15:26:42;14.80;99.90
16867;DHT22;8550;52.596;13.320;2024-03-23T15:31:45;14.00;99.50
16867;DHT22;8550;52.596;13.320;2024-03-23T15:36:47;12.80;99.90
16867;DHT22;8550;52.596;13.320;2024-03-23T15:41:49;12.30;99.90
16867;DHT22;8550;52.596;13.320;2024-03-23T15:46:51;12.40;99.90
16867;DHT22;8550;52.596;13.320;2024-03-23T15:51:52;12.50;99.90
16867;DHT22;8550;52.596;13.320;2024-03-23T15:56:53;12.20;99.90
16867;DHT22;8550;52.596;13.320;2024-03-23T16:01:55;11.40;99.90
16867;DHT22;8550;52.596;13.320;2024-03-23T16:06:56;11.00;99.90
16867;DHT22;8550;52.596;13.320;2024-03-23T16:12:00;10.90;99.90
16867;DHT22;8550;52.596;13.320;2024-03-23T16:17:00;11.10;99.90
16867;DHT22;8550;52.596;13.320;2024-03-23T16:22:03;10.30;99.90
16867;DHT22;8550;52.596;13.320;2024-03-23T16:27:06;9.70;99.90
16867;DHT22;8550;52.596;13.320;2024-03-23T16:32:06;9.70;99.90
16867;DHT22;8550;52.596;13.320;2024-03-23T16:37:07;9.60;99.90
16867;DHT22;8550;52.596;13.320;2024-03-23T16:42:12;9.50;99.90
16867;DHT22;8550;52.596;13.320;2024-03-23T16:47:12;9.60;99.90
16867;DHT22;8550;52.596;13.320;2024-03-23T16:52:14;9.00;99.90
16867;DHT22;8550;52.596;13.320;2024-03-23T16:57:16;8.80;99.90
16867;DHT22;8550;52.596;13.320;2024-03-23T17:02:17;8.80;99.90
16867;DHT22;8550;52.596;13.320;2024-03-23T17:07:17;8.70;99.90
16867;DHT22;8550;52.596;13.320;2024-03-23T17:12:19;8.20;99.90
16867;DHT22;8550;52.596;13.320;2024-03-23T17:17:20;7.90;99.90
16867;DHT22;8550;52.596;13.320;2024-03-23T17:22:21;7.70;99.90
16867;DHT22;8550;52.596;13.320;2024-03-23T17:27:22;7.60;99.90
16867;DHT22;8550;52.596;13.320;2024-03-23T17:32:23;7.50;99.90
16867;DHT22;8550;52.596;13.320;2024-03-23T17:37:23;7.40;99.90
16867;DHT22;8550;52.596;13.320;2024-03-23T17:42:24;7.30;99.90
16867;DHT22;8550;52.596;13.320;2024-03-23T17:47:25;7.10;99.90
16867;DHT22;8550;52.596;13.320;2024-03-23T17:52:25;7.10;99.90
16867;DHT22;8550;52.596;13.320;2024-03-23T17:57:26;7.00;99.90
16867;DHT22;8550;52.596;13.320;2024-03-23T18:02:27;7.00;99.90
16867;DHT22;8550;52.596;13.320;2024-03-23T18:07:28;7.10;99.90
16867;DHT22;8550;52.596;13.320;2024-03-23T18:12:29;7.40;99.90
16867;DHT22;8550;52.596;13.320;2024-03-23T18:17:31;7.40;99.90
16867;DHT22;8550;52.596;13.320;2024-03-23T18:22:31;7.20;99.90
16867;DHT22;8550;52.596;13.320;2024-03-23T18:27:32;7.10;99.90
16867;DHT22;8550;52.596;13.320;2024-03-23T18:32:33;6.90;99.90
16867;DHT22;8550;52.596;13.320;2024-03-23T18:37:33;6.50;99.90
16867;DHT22;8550;52.596;13.320;2024-03-23T18:42:35;6.30;99.90
16867;DHT22;8550;52.596;13.320;2024-03-23T18:47:37;6.10;99.90
16867;DHT22;8550;52.596;13.320;2024-03-23T18:52:40;6.00;99.90
16867;DHT22;8550;52.596;13.320;2024-03-23T18:57:41;5.90;99.90
16867;DHT22;8550;52.596;13.320;2024-03-23T19:02:43;5.90;99.90
16867;DHT22;8550;52.596;13.320;2024-03-23T19:07:44;5.90;99.90
16867;DHT22;8550;52.596;13.320;2024-03-23T19:12:45;5.90;99.90
16867;DHT22;8550;52.596;13.320;2024-03-23T19:17:46;5.90;99.90
16867;DHT22;8550;52.596;13.320;2024-03-23T19:22:47;5.80;99.90
16867;DHT22;8550;52.596;13.320;2024-03-23T19:27:48;5.60;99.90
16867;DHT22;8550;52.596;13.320;2024-03-23T19:32:49;5.50;99.90
16867;DHT22;8550;52.596;13.320;2024-03-23T19:37:49;5.30;99.90
16867;DHT22;8550;52.596;13.320;2024-03-23T19:42:50;5.30;99.90
16867;DHT22;8550;52.596;13.320;2024-03-23T19:47:51;5.10;99.90
16867;DHT22;8550;52.596;13.320;2024-03-23T19:52:51;5.00;99.90
16867;DHT22;8550;52.596;13.320;2024-03-23T19:57:52;4.90;99.90
16867;DHT22;8550;52.596;13.320;2024-03-23T20:02:53;4.90;99.90
16867;DHT22;8550;52.596;13.320;2024-03-23T20:07:53;5.10;99.90
16867;DHT22;8550;52.596;13.320;2024-03-23T20:12:55;5.10;99.90
16867;DHT22;8550;52.596;13.320;2024-03-23T20:17:57;5.20;99.90
16867;DHT22;8550;52.596;13.320;2024-03-23T20:22:57;5.20;99.90
16867;DHT22;8550;52.596;13.320;2024-03-23T20:27:58;5.10;99.90
16867;DHT22;8550;52.596;13.320;2024-03-23T20:32:58;5.10;99.90
16867;DHT22;8550;52.596;13.320;2024-03-23T20:37:59;4.90;99.90
16867;DHT22;8550;52.596;13.320;2024-03-23T20:43:07;4.80;99.90
16867;DHT22;8550;52.596;13.320;2024-03-23T20:48:09;4.70;99.90
16867;DHT22;8550;52.596;13.320;2024-03-23T20:53:10;4.70;99.90
16867;DHT22;8550;52.596;13.320;2024-03-23T20:58:10;4.70;99.90
16867;DHT22;8550;52.596;13.320;2024-03-23T21:03:11;4.60;99.90
16867;DHT22;8550;52.596;13.320;2024-03-23T21:08:12;4.60;99.90
16867;DHT22;8550;52.596;13.320;2024-03-23T21:13:13;4.60;99.90
16867;DHT22;8550;52.596;13.320;2024-03-23T21:18:14;4.40;99.90
16867;DHT22;8550;52.596;13.320;2024-03-23T21:23:14;4.40;99.90
16867;DHT22;8550;52.596;13.320;2024-03-23T21:28:15;4.40;99.90
16867;DHT22;8550;52.596;13.320;2024-03-23T21:33:16;4.30;99.90
16867;DHT22;8550;52.596;13.320;2024-03-23T21:38:17;4.30;99.90
16867;DHT22;8550;52.596;13.320;2024-03-23T21:43:17;4.30;99.90
16867;DHT22;8550;52.596;13.320;2024-03-23T21:48:18;4.30;99.90
16867;DHT22;8550;52.596;13.320;2024-03-23T21:53:18;4.30;99.90
16867;DHT22;8550;52.596;13.320;2024-03-23T21:58:22;4.30;99.90
16867;DHT22;8550;52.596;13.320;2024-03-23T22:03:23;4.40;99.90
16867;DHT22;8550;52.596;13.320;2024-03-23T22:08:23;4.20;99.90
16867;DHT22;8550;52.596;13.320;2024-03-23T22:13:24;4.30;99.90
16867;DHT22;8550;52.596;13.320;2024-03-23T22:18:25;4.30;99.90
16867;DHT22;8550;52.596;13.320;2024-03-23T22:23:25;4.30;99.90
16867;DHT22;8550;52.596;13.320;2024-03-23T22:28:26;4.30;99.90
16867;DHT22;8550;52.596;13.320;2024-03-23T22:33:28;4.30;99.90
16867;DHT22;8550;52.596;13.320;2024-03-23T22:38:29;4.10;99.90
16867;DHT22;8550;52.596;13.320;2024-03-23T22:43:31;4.20;99.90
16867;DHT22;8550;52.596;13.320;2024-03-23T22:48:33;4.10;99.90
16867;DHT22;8550;52.596;13.320;2024-03-23T22:53:34;4.10;99.90
16867;DHT22;8550;52.596;13.320;2024-03-23T22:58:35;4.00;99.90
16867;DHT22;8550;52.596;13.320;2024-03-23T23:03:36;4.00;99.90
16867;DHT22;8550;52.596;13.320;2024-03-23T23:08:36;4.10;99.90
16867;DHT22;8550;52.596;13.320;2024-03-23T23:13:38;4.20;99.90
16867;DHT22;8550;52.596;13.320;2024-03-23T23:18:39;4.20;99.90
16867;DHT22;8550;52.596;13.320;2024-03-23T23:23:39;4.20;99.90
16867;DHT22;8550;52.596;13.320;2024-03-23T23:28:40;4.20;99.90
16867;DHT22;8550;52.596;13.320;2024-03-23T23:33:41;4.30;99.90
16867;DHT22;8550;52.596;13.320;2024-03-23T23:38:48;4.40;99.90
16867;DHT22;8550;52.596;13.320;2024-03-23T23:43:56;4.50;99.90
16867;DHT22;8550;52.596;13.320;2024-03-23T23:48:58;4.40;99.90
16867;DHT22;8550;52.596;13.320;2024-03-23T23:53:58;4.40;99.90
16867;DHT22;8550;52.596;13.320;2024-03-23T23:58:59;4.20;99.90
